sensor_id;sensor_type;location;lat;lon;timestamp;P1;durP1;ratioP1;P2;durP2;ratioP2
74660;SDS011;63191;39.566;2.654;2023-07-13T00:00:36;18.40;;;6.70;;
74660;SDS011;63191;39.566;2.654;2023-07-13T00:03:03;17.70;;;6.70;;
74660;SDS011;63191;39.566;2.654;2023-07-13T00:05:29;17.60;;;5.70;;
74660;SDS011;63191;39.566;2.654;2023-07-13T00:07:56;18.40;;;6.30;;
74660;SDS011;63191;39.566;2.654;2023-07-13T00:10:22;22.70;;;7.10;;
74660;SDS011;63191;39.566;2.654;2023-07-13T00:12:48;17.40;;;7.00;;
74660;SDS011;63191;39.566;2.654;2023-07-13T00:15:20;19.90;;;6.50;;
74660;SDS011;63191;39.566;2.654;2023-07-13T00:17:57;19.30;;;6.90;;
74660;SDS011;63191;39.566;2.654;2023-07-13T00:20:24;17.00;;;6.50;;
74660;SDS011;63191;39.566;2.654;2023-07-13T00:22:52;19.80;;;6.90;;
74660;SDS011;63191;39.566;2.654;2023-07-13T00:25:20;17.80;;;6.80;;
74660;SDS011;63191;39.566;2.654;2023-07-13T00:27:51;18.60;;;6.30;;
74660;SDS011;63191;39.566;2.654;2023-07-13T00:30:17;20.90;;;6.60;;
74660;SDS011;63191;39.566;2.654;2023-07-13T00:32:43;22.60;;;6.60;;
74660;SDS011;63191;39.566;2.654;2023-07-13T00:35:09;20.80;;;6.10;;
74660;SDS011;63191;39.566;2.654;2023-07-13T00:37:35;16.10;;;5.10;;
74660;SDS011;63191;39.566;2.654;2023-07-13T00:40:05;19.50;;;5.60;;
74660;SDS011;63191;39.566;2.654;2023-07-13T00:42:31;20.80;;;5.80;;
74660;SDS011;63191;39.566;2.654;2023-07-13T00:45:02;21.90;;;5.50;;
74660;SDS011;63191;39.566;2.654;2023-07-13T00:47:38;20.50;;;6.50;;
74660;SDS011;63191;39.566;2.654;2023-07-13T00:50:07;22.10;;;6.20;;
74660;SDS011;63191;39.566;2.654;2023-07-13T00:52:36;16.20;;;6.00;;
74660;SDS011;63191;39.566;2.654;2023-07-13T00:55:04;17.10;;;5.00;;
74660;SDS011;63191;39.566;2.654;2023-07-13T00:57:30;14.90;;;5.30;;
74660;SDS011;63191;39.566;2.654;2023-07-13T00:59:59;17.50;;;5.70;;
74660;SDS011;63191;39.566;2.654;2023-07-13T01:02:26;19.00;;;6.30;;
74660;SDS011;63191;39.566;2.654;2023-07-13T01:04:52;14.00;;;5.90;;
74660;SDS011;63191;39.566;2.654;2023-07-13T01:07:19;15.70;;;5.50;;
74660;SDS011;63191;39.566;2.654;2023-07-13T01:09:45;19.40;;;6.90;;
74660;SDS011;63191;39.566;2.654;2023-07-13T01:12:11;18.00;;;5.80;;
74660;SDS011;63191;39.566;2.654;2023-07-13T01:14:39;20.40;;;5.70;;
74660;SDS011;63191;39.566;2.654;2023-07-13T01:17:09;17.30;;;5.90;;
74660;SDS011;63191;39.566;2.654;2023-07-13T01:19:43;17.20;;;6.00;;
74660;SDS011;63191;39.566;2.654;2023-07-13T01:22:16;19.30;;;6.30;;
74660;SDS011;63191;39.566;2.654;2023-07-13T01:24:46;17.90;;;6.70;;
74660;SDS011;63191;39.566;2.654;2023-07-13T01:27:15;18.20;;;7.90;;
74660;SDS011;63191;39.566;2.654;2023-07-13T01:29:44;26.40;;;7.90;;
74660;SDS011;63191;39.566;2.654;2023-07-13T01:32:15;16.70;;;7.10;;
74660;SDS011;63191;39.566;2.654;2023-07-13T01:34:48;21.00;;;6.70;;
74660;SDS011;63191;39.566;2.654;2023-07-13T01:37:14;20.70;;;6.70;;
74660;SDS011;63191;39.566;2.654;2023-07-13T01:39:40;17.20;;;6.70;;
74660;SDS011;63191;39.566;2.654;2023-07-13T01:42:06;21.80;;;7.00;;
74660;SDS011;63191;39.566;2.654;2023-07-13T01:44:32;18.20;;;6.10;;
74660;SDS011;63191;39.566;2.654;2023-07-13T01:46:58;17.90;;;5.90;;
74660;SDS011;63191;39.566;2.654;2023-07-13T01:49:24;19.30;;;5.90;;
74660;SDS011;63191;39.566;2.654;2023-07-13T01:51:49;20.80;;;6.00;;
74660;SDS011;63191;39.566;2.654;2023-07-13T01:54:15;22.60;;;5.80;;
74660;SDS011;63191;39.566;2.654;2023-07-13T01:56:43;18.00;;;6.70;;
74660;SDS011;63191;39.566;2.654;2023-07-13T01:59:09;19.20;;;6.40;;
74660;SDS011;63191;39.566;2.654;2023-07-13T02:01:35;18.10;;;6.20;;
74660;SDS011;63191;39.566;2.654;2023-07-13T02:04:01;18.50;;;5.90;;
74660;SDS011;63191;39.566;2.654;2023-07-13T02:06:27;17.20;;;5.90;;
74660;SDS011;63191;39.566;2.654;2023-07-13T02:08:53;15.90;;;6.20;;
74660;SDS011;63191;39.566;2.654;2023-07-13T02:11:18;15.50;;;5.80;;
74660;SDS011;63191;39.566;2.654;2023-07-13T02:13:44;14.50;;;5.90;;
74660;SDS011;63191;39.566;2.654;2023-07-13T02:16:10;15.00;;;5.70;;
74660;SDS011;63191;39.566;2.654;2023-07-13T02:18:35;17.40;;;5.20;;
74660;SDS011;63191;39.566;2.654;2023-07-13T02:21:01;16.30;;;5.70;;
74660;SDS011;63191;39.566;2.654;2023-07-13T02:23:28;15.30;;;5.10;;
74660;SDS011;63191;39.566;2.654;2023-07-13T02:25:57;16.70;;;5.40;;
74660;SDS011;63191;39.566;2.654;2023-07-13T02:28:24;19.20;;;7.10;;
74660;SDS011;63191;39.566;2.654;2023-07-13T02:30:50;18.60;;;6.40;;
74660;SDS011;63191;39.566;2.654;2023-07-13T02:33:16;14.10;;;6.30;;
74660;SDS011;63191;39.566;2.654;2023-07-13T02:35:41;15.50;;;6.30;;
74660;SDS011;63191;39.566;2.654;2023-07-13T02:38:07;15.40;;;6.50;;
74660;SDS011;63191;39.566;2.654;2023-07-13T02:40:34;21.20;;;6.10;;
74660;SDS011;63191;39.566;2.654;2023-07-13T02:43:01;16.20;;;5.30;;
74660;SDS011;63191;39.566;2.654;2023-07-13T02:45:27;14.70;;;5.30;;
74660;SDS011;63191;39.566;2.654;2023-07-13T02:47:54;11.10;;;4.70;;
74660;SDS011;63191;39.566;2.654;2023-07-13T02:50:20;16.20;;;5.10;;
74660;SDS011;63191;39.566;2.654;2023-07-13T02:52:45;14.50;;;4.90;;
74660;SDS011;63191;39.566;2.654;2023-07-13T02:55:11;15.50;;;5.10;;
74660;SDS011;63191;39.566;2.654;2023-07-13T02:57:37;13.70;;;4.00;;
74660;SDS011;63191;39.566;2.654;2023-07-13T03:00:04;12.80;;;3.90;;
74660;SDS011;63191;39.566;2.654;2023-07-13T03:02:32;15.50;;;4.10;;
74660;SDS011;63191;39.566;2.654;2023-07-13T03:04:58;15.10;;;3.70;;
74660;SDS011;63191;39.566;2.654;2023-07-13T03:07:24;11.90;;;3.80;;
74660;SDS011;63191;39.566;2.654;2023-07-13T03:09:56;14.50;;;4.00;;
74660;SDS011;63191;39.566;2.654;2023-07-13T03:12:23;13.40;;;3.80;;
74660;SDS011;63191;39.566;2.654;2023-07-13T03:14:49;12.00;;;3.70;;
74660;SDS011;63191;39.566;2.654;2023-07-13T03:17:14;11.90;;;3.00;;
74660;SDS011;63191;39.566;2.654;2023-07-13T03:19:40;12.60;;;3.00;;
74660;SDS011;63191;39.566;2.654;2023-07-13T03:22:06;14.20;;;3.10;;
74660;SDS011;63191;39.566;2.654;2023-07-13T03:24:33;12.70;;;3.20;;
74660;SDS011;63191;39.566;2.654;2023-07-13T03:27:01;12.00;;;3.30;;
74660;SDS011;63191;39.566;2.654;2023-07-13T03:29:29;11.40;;;3.10;;
74660;SDS011;63191;39.566;2.654;2023-07-13T03:31:54;10.60;;;2.20;;
74660;SDS011;63191;39.566;2.654;2023-07-13T03:34:20;10.00;;;2.80;;
74660;SDS011;63191;39.566;2.654;2023-07-13T03:36:46;13.70;;;3.00;;
74660;SDS011;63191;39.566;2.654;2023-07-13T03:39:11;9.60;;;3.10;;
74660;SDS011;63191;39.566;2.654;2023-07-13T03:41:37;12.80;;;2.90;;
74660;SDS011;63191;39.566;2.654;2023-07-13T03:44:03;10.30;;;3.20;;
74660;SDS011;63191;39.566;2.654;2023-07-13T03:46:29;11.30;;;2.80;;
74660;SDS011;63191;39.566;2.654;2023-07-13T03:48:54;10.30;;;2.70;;
74660;SDS011;63191;39.566;2.654;2023-07-13T03:51:21;11.50;;;2.50;;
74660;SDS011;63191;39.566;2.654;2023-07-13T03:53:47;12.10;;;2.70;;
74660;SDS011;63191;39.566;2.654;2023-07-13T03:56:14;11.80;;;3.10;;
74660;SDS011;63191;39.566;2.654;2023-07-13T03:58:42;11.30;;;2.70;;
74660;SDS011;63191;39.566;2.654;2023-07-13T04:01:10;11.60;;;2.90;;
74660;SDS011;63191;39.566;2.654;2023-07-13T04:03:37;10.90;;;3.00;;
74660;SDS011;63191;39.566;2.654;2023-07-13T04:06:05;9.00;;;2.90;;
74660;SDS011;63191;39.566;2.654;2023-07-13T04:08:36;13.00;;;2.90;;
74660;SDS011;63191;39.566;2.654;2023-07-13T04:11:04;11.90;;;2.80;;
74660;SDS011;63191;39.566;2.654;2023-07-13T04:13:29;7.20;;;2.30;;
74660;SDS011;63191;39.566;2.654;2023-07-13T04:15:55;9.50;;;2.70;;
74660;SDS011;63191;39.566;2.654;2023-07-13T04:18:21;13.50;;;2.60;;
74660;SDS011;63191;39.566;2.654;2023-07-13T04:20:49;8.20;;;2.20;;
74660;SDS011;63191;39.566;2.654;2023-07-13T04:23:16;9.40;;;2.60;;
74660;SDS011;63191;39.566;2.654;2023-07-13T04:25:46;7.90;;;2.20;;
74660;SDS011;63191;39.566;2.654;2023-07-13T04:28:15;10.60;;;2.80;;
74660;SDS011;63191;39.566;2.654;2023-07-13T04:30:42;9.90;;;2.70;;
74660;SDS011;63191;39.566;2.654;2023-07-13T04:33:08;17.00;;;2.60;;
74660;SDS011;63191;39.566;2.654;2023-07-13T04:35:35;9.70;;;2.00;;
74660;SDS011;63191;39.566;2.654;2023-07-13T04:38:01;9.50;;;2.70;;
74660;SDS011;63191;39.566;2.654;2023-07-13T04:40:28;9.10;;;2.60;;
74660;SDS011;63191;39.566;2.654;2023-07-13T04:42:55;10.50;;;2.40;;
74660;SDS011;63191;39.566;2.654;2023-07-13T04:45:21;8.70;;;2.50;;
74660;SDS011;63191;39.566;2.654;2023-07-13T04:47:49;10.00;;;2.60;;
74660;SDS011;63191;39.566;2.654;2023-07-13T04:50:15;10.40;;;2.30;;
74660;SDS011;63191;39.566;2.654;2023-07-13T04:52:46;11.50;;;2.30;;
74660;SDS011;63191;39.566;2.654;2023-07-13T04:55:13;11.20;;;2.60;;
74660;SDS011;63191;39.566;2.654;2023-07-13T04:57:38;10.10;;;2.40;;
74660;SDS011;63191;39.566;2.654;2023-07-13T05:00:05;9.00;;;2.20;;
74660;SDS011;63191;39.566;2.654;2023-07-13T05:02:33;11.40;;;2.50;;
74660;SDS011;63191;39.566;2.654;2023-07-13T05:04:59;8.30;;;2.40;;
74660;SDS011;63191;39.566;2.654;2023-07-13T05:07:26;10.90;;;2.70;;
74660;SDS011;63191;39.566;2.654;2023-07-13T05:09:52;8.40;;;2.40;;
74660;SDS011;63191;39.566;2.654;2023-07-13T05:12:18;11.40;;;2.60;;
74660;SDS011;63191;39.566;2.654;2023-07-13T05:14:44;10.00;;;2.20;;
74660;SDS011;63191;39.566;2.654;2023-07-13T05:17:10;9.20;;;2.50;;
74660;SDS011;63191;39.566;2.654;2023-07-13T05:19:36;11.70;;;2.90;;
74660;SDS011;63191;39.566;2.654;2023-07-13T05:22:03;11.50;;;2.80;;
74660;SDS011;63191;39.566;2.654;2023-07-13T05:24:29;8.10;;;2.10;;
74660;SDS011;63191;39.566;2.654;2023-07-13T05:26:55;11.50;;;2.50;;
74660;SDS011;63191;39.566;2.654;2023-07-13T05:29:21;10.70;;;2.30;;
74660;SDS011;63191;39.566;2.654;2023-07-13T05:31:48;8.00;;;2.40;;
74660;SDS011;63191;39.566;2.654;2023-07-13T05:34:14;10.70;;;2.50;;
74660;SDS011;63191;39.566;2.654;2023-07-13T05:36:41;9.50;;;2.30;;
74660;SDS011;63191;39.566;2.654;2023-07-13T05:39:07;9.60;;;2.70;;
74660;SDS011;63191;39.566;2.654;2023-07-13T05:41:32;8.90;;;2.10;;
74660;SDS011;63191;39.566;2.654;2023-07-13T05:43:58;9.60;;;2.30;;
74660;SDS011;63191;39.566;2.654;2023-07-13T05:46:25;11.80;;;2.60;;
74660;SDS011;63191;39.566;2.654;2023-07-13T05:48:51;10.60;;;2.70;;
74660;SDS011;63191;39.566;2.654;2023-07-13T05:51:17;10.60;;;2.80;;
74660;SDS011;63191;39.566;2.654;2023-07-13T05:53:42;11.30;;;2.50;;
74660;SDS011;63191;39.566;2.654;2023-07-13T05:56:08;11.00;;;2.40;;
74660;SDS011;63191;39.566;2.654;2023-07-13T05:58:34;13.40;;;2.10;;
74660;SDS011;63191;39.566;2.654;2023-07-13T06:01:03;9.30;;;2.30;;
74660;SDS011;63191;39.566;2.654;2023-07-13T06:03:31;12.50;;;2.50;;
74660;SDS011;63191;39.566;2.654;2023-07-13T06:05:57;9.30;;;2.30;;
74660;SDS011;63191;39.566;2.654;2023-07-13T06:08:26;10.70;;;2.60;;
74660;SDS011;63191;39.566;2.654;2023-07-13T06:10:52;13.50;;;3.00;;
74660;SDS011;63191;39.566;2.654;2023-07-13T06:13:18;11.00;;;2.50;;
74660;SDS011;63191;39.566;2.654;2023-07-13T06:15:53;9.80;;;2.30;;
74660;SDS011;63191;39.566;2.654;2023-07-13T06:18:19;10.60;;;2.60;;
74660;SDS011;63191;39.566;2.654;2023-07-13T06:20:45;11.30;;;2.50;;
74660;SDS011;63191;39.566;2.654;2023-07-13T06:23:10;10.80;;;2.80;;
74660;SDS011;63191;39.566;2.654;2023-07-13T06:25:36;11.00;;;2.30;;
74660;SDS011;63191;39.566;2.654;2023-07-13T06:28:02;10.50;;;2.80;;
74660;SDS011;63191;39.566;2.654;2023-07-13T06:30:27;11.80;;;2.80;;
74660;SDS011;63191;39.566;2.654;2023-07-13T06:32:54;14.60;;;2.80;;
74660;SDS011;63191;39.566;2.654;2023-07-13T06:35:19;8.60;;;2.60;;
74660;SDS011;63191;39.566;2.654;2023-07-13T06:37:45;10.00;;;2.70;;
74660;SDS011;63191;39.566;2.654;2023-07-13T06:40:12;10.70;;;3.00;;
74660;SDS011;63191;39.566;2.654;2023-07-13T06:42:39;10.30;;;3.10;;
74660;SDS011;63191;39.566;2.654;2023-07-13T06:45:06;11.30;;;2.60;;
74660;SDS011;63191;39.566;2.654;2023-07-13T06:47:32;9.70;;;2.70;;
74660;SDS011;63191;39.566;2.654;2023-07-13T06:49:59;12.00;;;3.10;;
74660;SDS011;63191;39.566;2.654;2023-07-13T06:52:25;15.10;;;3.00;;
74660;SDS011;63191;39.566;2.654;2023-07-13T06:54:51;12.40;;;3.00;;
74660;SDS011;63191;39.566;2.654;2023-07-13T06:57:17;12.90;;;3.00;;
74660;SDS011;63191;39.566;2.654;2023-07-13T06:59:42;12.20;;;3.10;;
74660;SDS011;63191;39.566;2.654;2023-07-13T07:02:10;9.80;;;2.80;;
74660;SDS011;63191;39.566;2.654;2023-07-13T07:04:37;10.00;;;3.20;;
74660;SDS011;63191;39.566;2.654;2023-07-13T07:07:02;9.50;;;2.60;;
74660;SDS011;63191;39.566;2.654;2023-07-13T07:09:28;10.10;;;2.90;;
74660;SDS011;63191;39.566;2.654;2023-07-13T07:11:56;12.00;;;2.80;;
74660;SDS011;63191;39.566;2.654;2023-07-13T07:14:22;9.20;;;2.80;;
74660;SDS011;63191;39.566;2.654;2023-07-13T07:16:49;9.30;;;3.10;;
74660;SDS011;63191;39.566;2.654;2023-07-13T07:19:15;11.50;;;3.20;;
74660;SDS011;63191;39.566;2.654;2023-07-13T07:21:41;10.90;;;2.70;;
74660;SDS011;63191;39.566;2.654;2023-07-13T07:24:07;11.30;;;3.10;;
74660;SDS011;63191;39.566;2.654;2023-07-13T07:26:34;10.40;;;3.10;;
74660;SDS011;63191;39.566;2.654;2023-07-13T07:29:00;11.30;;;3.40;;
74660;SDS011;63191;39.566;2.654;2023-07-13T07:31:25;10.10;;;3.10;;
74660;SDS011;63191;39.566;2.654;2023-07-13T07:33:51;12.10;;;3.30;;
74660;SDS011;63191;39.566;2.654;2023-07-13T07:36:17;10.70;;;2.90;;
74660;SDS011;63191;39.566;2.654;2023-07-13T07:38:43;10.70;;;3.20;;
74660;SDS011;63191;39.566;2.654;2023-07-13T07:41:09;11.10;;;3.20;;
74660;SDS011;63191;39.566;2.654;2023-07-13T07:43:35;11.20;;;3.00;;
74660;SDS011;63191;39.566;2.654;2023-07-13T07:46:02;11.00;;;3.20;;
74660;SDS011;63191;39.566;2.654;2023-07-13T07:48:28;11.40;;;3.80;;
74660;SDS011;63191;39.566;2.654;2023-07-13T07:50:54;12.20;;;2.90;;
74660;SDS011;63191;39.566;2.654;2023-07-13T07:53:20;11.20;;;2.90;;
74660;SDS011;63191;39.566;2.654;2023-07-13T07:55:46;13.20;;;3.30;;
74660;SDS011;63191;39.566;2.654;2023-07-13T07:58:12;10.40;;;3.20;;
74660;SDS011;63191;39.566;2.654;2023-07-13T08:00:38;11.10;;;3.30;;
74660;SDS011;63191;39.566;2.654;2023-07-13T08:03:04;11.10;;;3.50;;
74660;SDS011;63191;39.566;2.654;2023-07-13T08:05:30;13.40;;;3.50;;
74660;SDS011;63191;39.566;2.654;2023-07-13T08:07:55;11.20;;;3.10;;
74660;SDS011;63191;39.566;2.654;2023-07-13T08:10:21;11.30;;;3.40;;
74660;SDS011;63191;39.566;2.654;2023-07-13T08:12:47;9.20;;;3.10;;
74660;SDS011;63191;39.566;2.654;2023-07-13T08:15:15;10.50;;;3.30;;
74660;SDS011;63191;39.566;2.654;2023-07-13T08:17:41;9.60;;;2.80;;
74660;SDS011;63191;39.566;2.654;2023-07-13T08:20:08;6.70;;;2.60;;
74660;SDS011;63191;39.566;2.654;2023-07-13T08:22:37;10.50;;;3.00;;
74660;SDS011;63191;39.566;2.654;2023-07-13T08:25:02;9.70;;;2.70;;
74660;SDS011;63191;39.566;2.654;2023-07-13T08:27:28;8.60;;;2.90;;
74660;SDS011;63191;39.566;2.654;2023-07-13T08:29:55;7.60;;;2.80;;
74660;SDS011;63191;39.566;2.654;2023-07-13T08:32:22;13.00;;;3.10;;
74660;SDS011;63191;39.566;2.654;2023-07-13T08:34:48;10.50;;;2.80;;
74660;SDS011;63191;39.566;2.654;2023-07-13T08:37:14;8.50;;;2.80;;
74660;SDS011;63191;39.566;2.654;2023-07-13T08:39:40;10.30;;;2.90;;
74660;SDS011;63191;39.566;2.654;2023-07-13T08:42:44;12.00;;;2.90;;
74660;SDS011;63191;39.566;2.654;2023-07-13T08:45:41;10.60;;;2.60;;
74660;SDS011;63191;39.566;2.654;2023-07-13T08:48:27;10.40;;;2.90;;
74660;SDS011;63191;39.566;2.654;2023-07-13T08:51:26;8.50;;;2.70;;
74660;SDS011;63191;39.566;2.654;2023-07-13T08:54:08;10.50;;;2.80;;
74660;SDS011;63191;39.566;2.654;2023-07-13T08:56:38;8.20;;;2.60;;
74660;SDS011;63191;39.566;2.654;2023-07-13T08:59:15;9.60;;;2.70;;
74660;SDS011;63191;39.566;2.654;2023-07-13T09:04:59;10.80;;;2.70;;
74660;SDS011;63191;39.566;2.654;2023-07-13T09:07:46;7.80;;;2.50;;
74660;SDS011;63191;39.566;2.654;2023-07-13T09:10:44;7.30;;;2.40;;
74660;SDS011;63191;39.566;2.654;2023-07-13T09:13:34;8.00;;;2.70;;
74660;SDS011;63191;39.566;2.654;2023-07-13T09:16:34;9.30;;;2.60;;
74660;SDS011;63191;39.566;2.654;2023-07-13T09:19:04;7.30;;;2.20;;
74660;SDS011;63191;39.566;2.654;2023-07-13T09:21:34;10.30;;;3.00;;
74660;SDS011;63191;39.566;2.654;2023-07-13T09:24:26;8.50;;;2.80;;
74660;SDS011;63191;39.566;2.654;2023-07-13T09:26:59;8.40;;;2.80;;
74660;SDS011;63191;39.566;2.654;2023-07-13T09:29:32;7.90;;;2.70;;
74660;SDS011;63191;39.566;2.654;2023-07-13T09:32:02;9.80;;;2.90;;
74660;SDS011;63191;39.566;2.654;2023-07-13T09:34:30;6.60;;;2.40;;
74660;SDS011;63191;39.566;2.654;2023-07-13T09:36:57;9.20;;;2.70;;
74660;SDS011;63191;39.566;2.654;2023-07-13T09:39:33;9.20;;;2.70;;
74660;SDS011;63191;39.566;2.654;2023-07-13T09:42:16;7.70;;;2.70;;
74660;SDS011;63191;39.566;2.654;2023-07-13T09:44:57;6.60;;;2.20;;
74660;SDS011;63191;39.566;2.654;2023-07-13T09:47:31;9.60;;;2.70;;
74660;SDS011;63191;39.566;2.654;2023-07-13T09:50:08;8.60;;;2.50;;
74660;SDS011;63191;39.566;2.654;2023-07-13T09:52:49;8.20;;;2.80;;
74660;SDS011;63191;39.566;2.654;2023-07-13T09:55:28;7.90;;;2.40;;
74660;SDS011;63191;39.566;2.654;2023-07-13T09:57:57;14.00;;;2.80;;
74660;SDS011;63191;39.566;2.654;2023-07-13T10:00:26;7.30;;;2.50;;
74660;SDS011;63191;39.566;2.654;2023-07-13T10:03:05;7.80;;;2.50;;
74660;SDS011;63191;39.566;2.654;2023-07-13T10:05:42;7.60;;;2.50;;
74660;SDS011;63191;39.566;2.654;2023-07-13T10:08:29;8.00;;;2.70;;
74660;SDS011;63191;39.566;2.654;2023-07-13T10:11:00;8.20;;;2.70;;
74660;SDS011;63191;39.566;2.654;2023-07-13T10:13:34;8.00;;;2.40;;
74660;SDS011;63191;39.566;2.654;2023-07-13T10:16:03;7.30;;;2.70;;
74660;SDS011;63191;39.566;2.654;2023-07-13T10:18:38;8.80;;;3.10;;
74660;SDS011;63191;39.566;2.654;2023-07-13T10:21:28;8.60;;;2.70;;
74660;SDS011;63191;39.566;2.654;2023-07-13T10:24:17;7.10;;;2.80;;
74660;SDS011;63191;39.566;2.654;2023-07-13T10:27:18;8.20;;;2.60;;
74660;SDS011;63191;39.566;2.654;2023-07-13T10:29:42;10.00;;;2.90;;
74660;SDS011;63191;39.566;2.654;2023-07-13T10:32:12;7.20;;;2.60;;
74660;SDS011;63191;39.566;2.654;2023-07-13T10:34:40;9.00;;;2.70;;
74660;SDS011;63191;39.566;2.654;2023-07-13T10:37:18;7.80;;;2.90;;
74660;SDS011;63191;39.566;2.654;2023-07-13T10:39:46;8.70;;;2.40;;
74660;SDS011;63191;39.566;2.654;2023-07-13T10:42:25;7.10;;;2.70;;
74660;SDS011;63191;39.566;2.654;2023-07-13T10:44:59;7.30;;;2.60;;
74660;SDS011;63191;39.566;2.654;2023-07-13T10:47:26;10.10;;;2.80;;
74660;SDS011;63191;39.566;2.654;2023-07-13T10:49:55;8.60;;;2.80;;
74660;SDS011;63191;39.566;2.654;2023-07-13T10:52:48;8.60;;;2.10;;
74660;SDS011;63191;39.566;2.654;2023-07-13T10:58:35;8.30;;;2.70;;
74660;SDS011;63191;39.566;2.654;2023-07-13T11:06:13;6.70;;;2.60;;
74660;SDS011;63191;39.566;2.654;2023-07-13T11:09:30;8.60;;;2.50;;
74660;SDS011;63191;39.566;2.654;2023-07-13T11:12:00;7.20;;;2.50;;
74660;SDS011;63191;39.566;2.654;2023-07-13T11:14:41;7.40;;;2.70;;
74660;SDS011;63191;39.566;2.654;2023-07-13T11:20:22;8.10;;;2.80;;
74660;SDS011;63191;39.566;2.654;2023-07-13T11:25:37;6.50;;;2.80;;
74660;SDS011;63191;39.566;2.654;2023-07-13T11:28:13;8.20;;;2.60;;
74660;SDS011;63191;39.566;2.654;2023-07-13T11:33:19;10.10;;;2.80;;
74660;SDS011;63191;39.566;2.654;2023-07-13T11:38:41;7.50;;;3.00;;
74660;SDS011;63191;39.566;2.654;2023-07-13T11:41:25;6.30;;;2.80;;
74660;SDS011;63191;39.566;2.654;2023-07-13T11:44:05;7.90;;;3.00;;
74660;SDS011;63191;39.566;2.654;2023-07-13T11:46:45;6.70;;;2.80;;
74660;SDS011;63191;39.566;2.654;2023-07-13T11:49:24;8.90;;;2.90;;
74660;SDS011;63191;39.566;2.654;2023-07-13T11:51:53;7.00;;;3.20;;
74660;SDS011;63191;39.566;2.654;2023-07-13T11:54:28;9.80;;;3.50;;
74660;SDS011;63191;39.566;2.654;2023-07-13T11:57:02;9.20;;;3.00;;
74660;SDS011;63191;39.566;2.654;2023-07-13T11:59:44;6.70;;;3.10;;
74660;SDS011;63191;39.566;2.654;2023-07-13T12:02:37;8.40;;;3.30;;
74660;SDS011;63191;39.566;2.654;2023-07-13T12:05:05;6.50;;;3.80;;
74660;SDS011;63191;39.566;2.654;2023-07-13T12:07:35;6.60;;;4.10;;
74660;SDS011;63191;39.566;2.654;2023-07-13T12:10:25;7.50;;;4.10;;
74660;SDS011;63191;39.566;2.654;2023-07-13T12:13:08;9.30;;;4.60;;
74660;SDS011;63191;39.566;2.654;2023-07-13T12:15:43;8.60;;;5.10;;
74660;SDS011;63191;39.566;2.654;2023-07-13T12:18:20;7.50;;;5.30;;
74660;SDS011;63191;39.566;2.654;2023-07-13T12:20:50;7.50;;;5.70;;
74660;SDS011;63191;39.566;2.654;2023-07-13T12:23:34;8.60;;;6.90;;
74660;SDS011;63191;39.566;2.654;2023-07-13T12:26:05;10.70;;;7.30;;
74660;SDS011;63191;39.566;2.654;2023-07-13T12:32:03;10.70;;;9.60;;
74660;SDS011;63191;39.566;2.654;2023-07-13T12:34:16;13.10;;;12.00;;
74660;SDS011;63191;39.566;2.654;2023-07-13T12:37:01;15.50;;;14.30;;
74660;SDS011;63191;39.566;2.654;2023-07-13T12:39:36;16.80;;;15.60;;
74660;SDS011;63191;39.566;2.654;2023-07-13T12:42:26;20.40;;;19.10;;
74660;SDS011;63191;39.566;2.654;2023-07-13T12:44:59;25.40;;;23.70;;
74660;SDS011;63191;39.566;2.654;2023-07-13T12:47:28;29.10;;;27.10;;
74660;SDS011;63191;39.566;2.654;2023-07-13T12:49:57;31.00;;;29.10;;
74660;SDS011;63191;39.566;2.654;2023-07-13T12:52:30;36.90;;;34.70;;
74660;SDS011;63191;39.566;2.654;2023-07-13T12:55:11;40.60;;;38.40;;
74660;SDS011;63191;39.566;2.654;2023-07-13T12:57:50;45.60;;;43.10;;
74660;SDS011;63191;39.566;2.654;2023-07-13T13:00:30;52.00;;;49.10;;
74660;SDS011;63191;39.566;2.654;2023-07-13T13:03:12;57.20;;;54.40;;
74660;SDS011;63191;39.566;2.654;2023-07-13T13:06:03;61.70;;;58.70;;
74660;SDS011;63191;39.566;2.654;2023-07-13T13:08:53;71.90;;;68.40;;
74660;SDS011;63191;39.566;2.654;2023-07-13T13:11:22;82.30;;;78.40;;
74660;SDS011;63191;39.566;2.654;2023-07-13T13:13:49;87.80;;;83.60;;
74660;SDS011;63191;39.566;2.654;2023-07-13T13:16:33;89.80;;;85.70;;
74660;SDS011;63191;39.566;2.654;2023-07-13T13:19:24;102.90;;;98.20;;
74660;SDS011;63191;39.566;2.654;2023-07-13T13:21:53;110.40;;;105.60;;
74660;SDS011;63191;39.566;2.654;2023-07-13T13:24:25;114.20;;;109.10;;
74660;SDS011;63191;39.566;2.654;2023-07-13T13:26:52;119.50;;;114.30;;
74660;SDS011;63191;39.566;2.654;2023-07-13T13:29:23;126.70;;;121.20;;
74660;SDS011;63191;39.566;2.654;2023-07-13T13:31:50;131.70;;;126.10;;
74660;SDS011;63191;39.566;2.654;2023-07-13T13:34:18;128.00;;;122.60;;
74660;SDS011;63191;39.566;2.654;2023-07-13T13:36:47;138.40;;;132.60;;
74660;SDS011;63191;39.566;2.654;2023-07-13T13:39:21;148.30;;;142.20;;
74660;SDS011;63191;39.566;2.654;2023-07-13T13:41:52;139.30;;;133.50;;
74660;SDS011;63191;39.566;2.654;2023-07-13T13:44:20;140.20;;;134.50;;
74660;SDS011;63191;39.566;2.654;2023-07-13T13:46:48;139.10;;;133.20;;
74660;SDS011;63191;39.566;2.654;2023-07-13T13:49:21;145.10;;;139.00;;
74660;SDS011;63191;39.566;2.654;2023-07-13T13:51:49;146.70;;;140.50;;
74660;SDS011;63191;39.566;2.654;2023-07-13T13:54:17;147.20;;;141.10;;
74660;SDS011;63191;39.566;2.654;2023-07-13T13:56:47;137.90;;;132.20;;
74660;SDS011;63191;39.566;2.654;2023-07-13T13:59:14;148.70;;;142.60;;
74660;SDS011;63191;39.566;2.654;2023-07-13T14:01:43;151.00;;;144.80;;
74660;SDS011;63191;39.566;2.654;2023-07-13T14:04:21;150.20;;;144.00;;
74660;SDS011;63191;39.566;2.654;2023-07-13T14:06:47;154.80;;;148.40;;
74660;SDS011;63191;39.566;2.654;2023-07-13T14:09:16;148.90;;;142.80;;
74660;SDS011;63191;39.566;2.654;2023-07-13T14:11:44;143.30;;;137.30;;
74660;SDS011;63191;39.566;2.654;2023-07-13T14:14:20;138.20;;;132.30;;
74660;SDS011;63191;39.566;2.654;2023-07-13T14:16:47;143.90;;;137.90;;
74660;SDS011;63191;39.566;2.654;2023-07-13T14:19:20;143.40;;;137.50;;
74660;SDS011;63191;39.566;2.654;2023-07-13T14:21:46;139.00;;;133.00;;
74660;SDS011;63191;39.566;2.654;2023-07-13T14:24:15;135.60;;;129.70;;
74660;SDS011;63191;39.566;2.654;2023-07-13T14:26:41;143.00;;;137.10;;
74660;SDS011;63191;39.566;2.654;2023-07-13T14:29:13;146.00;;;140.10;;
74660;SDS011;63191;39.566;2.654;2023-07-13T14:31:40;148.40;;;142.30;;
74660;SDS011;63191;39.566;2.654;2023-07-13T14:34:09;151.00;;;144.80;;
74660;SDS011;63191;39.566;2.654;2023-07-13T14:36:39;147.10;;;141.00;;
74660;SDS011;63191;39.566;2.654;2023-07-13T14:39:15;150.80;;;144.40;;
74660;SDS011;63191;39.566;2.654;2023-07-13T14:41:45;144.70;;;138.80;;
74660;SDS011;63191;39.566;2.654;2023-07-13T14:44:16;143.10;;;137.10;;
74660;SDS011;63191;39.566;2.654;2023-07-13T14:46:44;143.60;;;137.50;;
74660;SDS011;63191;39.566;2.654;2023-07-13T14:49:25;148.60;;;142.60;;
74660;SDS011;63191;39.566;2.654;2023-07-13T14:51:56;138.00;;;132.00;;
74660;SDS011;63191;39.566;2.654;2023-07-13T14:54:23;146.60;;;140.50;;
74660;SDS011;63191;39.566;2.654;2023-07-13T14:56:49;148.80;;;142.70;;
74660;SDS011;63191;39.566;2.654;2023-07-13T14:59:16;141.70;;;135.80;;
74660;SDS011;63191;39.566;2.654;2023-07-13T15:01:45;140.10;;;134.20;;
74660;SDS011;63191;39.566;2.654;2023-07-13T15:04:11;138.00;;;132.30;;
74660;SDS011;63191;39.566;2.654;2023-07-13T15:06:58;137.60;;;131.80;;
74660;SDS011;63191;39.566;2.654;2023-07-13T15:09:26;137.30;;;131.50;;
74660;SDS011;63191;39.566;2.654;2023-07-13T15:11:55;130.60;;;125.20;;
74660;SDS011;63191;39.566;2.654;2023-07-13T15:14:22;136.20;;;130.50;;
74660;SDS011;63191;39.566;2.654;2023-07-13T15:16:51;135.30;;;129.50;;